Time;durP1;ratioP1;P1;durP2;ratioP2;P2;SDS_P1;SDS_P2;PMS_P1;PMS_P2;Temp;Humidity;BMP_temperature;BMP_pressure;BME280_temperature;BME280_humidity;BME280_pressure;Samples;Min_cycle;Max_cycle;Signal;HPM_P1;HPM_P2
2021/08/26 00:07:23;;;;;;;7.18;2.10;;;;;;;15.50;89.30;101914.56;5075078;28;20044;-68
2021/08/26 00:09:49;;;;;;;5.88;2.33;;;;;;;15.44;89.41;101906.84;5074734;28;20020;-68
2021/08/26 00:12:14;;;;;;;8.40;2.60;;;;;;;15.40;89.94;101905.25;5075471;28;20032;-69
2021/08/26 00:14:40;;;;;;;7.80;2.03;;;;;;;15.34;90.08;101903.72;5074264;28;20460;-68
2021/08/26 00:17:06;;;;;;;5.10;2.30;;;;;;;15.30;89.86;101907.50;5074523;28;20472;-68
2021/08/26 00:19:31;;;;;;;7.72;2.20;;;;;;;15.27;90.29;101910.31;5074334;28;20111;-68
2021/08/26 00:21:57;;;;;;;8.20;2.20;;;;;;;15.27;90.16;101901.44;5074403;28;20479;-69
2021/08/26 00:24:22;;;;;;;9.48;2.25;;;;;;;15.27;90.19;101902.31;5075181;28;20036;-69
2021/08/26 00:26:48;;;;;;;9.02;2.50;;;;;;;15.25;89.69;101896.19;5073915;28;20488;-68
2021/08/26 00:29:13;;;;;;;5.00;2.17;;;;;;;15.23;89.49;101900.75;5074279;28;20063;-68
2021/08/26 00:31:38;;;;;;;8.32;2.58;;;;;;;15.22;89.03;101899.84;5074256;28;20098;-68
2021/08/26 00:34:03;;;;;;;8.57;2.83;;;;;;;15.31;88.80;101884.38;5074949;28;20020;-68
2021/08/26 00:36:29;;;;;;;7.60;2.63;;;;;;;15.40;88.45;101890.09;5073926;28;20020;-68
2021/08/26 00:38:54;;;;;;;10.55;2.95;;;;;;;15.52;86.94;101893.13;5074081;28;20029;-68
2021/08/26 00:41:20;;;;;;;12.77;3.33;;;;;;;15.60;85.74;101885.59;5073979;28;20025;-69
2021/08/26 00:43:45;;;;;;;7.38;2.50;;;;;;;15.65;86.12;101877.34;5074018;28;20085;-68
2021/08/26 00:46:12;;;;;;;12.57;3.28;;;;;;;15.65;85.81;101880.03;5088524;28;20036;-66
2021/08/26 00:48:40;;;;;;;8.68;3.22;;;;;;;15.67;84.58;101881.66;5073985;28;20028;-69
2021/08/26 00:51:05;;;;;;;12.98;3.10;;;;;;;15.72;84.13;101878.78;5073770;28;20028;-69
2021/08/26 00:53:30;;;;;;;9.95;3.17;;;;;;;15.77;85.13;101873.19;5073848;28;20024;-67
2021/08/26 00:55:56;;;;;;;9.35;3.13;;;;;;;15.78;83.46;101865.13;5074277;28;20464;-68
2021/08/26 00:58:21;;;;;;;10.90;3.50;;;;;;;15.81;83.93;101883.69;5073755;28;20453;-69
2021/08/26 01:00:51;;;;;;;13.20;3.00;;;;;;;15.81;81.76;101882.81;5073409;28;20091;-68
2021/08/26 01:03:25;;;;;;;12.85;3.95;;;;;;;15.82;81.66;101869.41;5073600;28;20037;-69
2021/08/26 01:05:56;;;;;;;16.60;3.10;;;;;;;15.83;81.14;101867.59;5074334;28;20082;-68
2021/08/26 01:08:31;;;;;;;12.45;3.15;;;;;;;15.83;80.54;101867.59;5073331;28;20384;-67
2021/08/26 01:10:58;;;;;;;11.02;3.47;;;;;;;15.84;80.35;101875.53;5072929;28;20393;-69
2021/08/26 01:13:29;;;;;;;15.02;3.42;;;;;;;15.85;80.17;101871.91;5073298;28;20071;-68
2021/08/26 01:16:03;;;;;;;12.32;3.00;;;;;;;15.83;78.55;101860.44;5073477;28;20021;-68
2021/08/26 01:18:30;;;;;;;10.07;3.00;;;;;;;15.84;78.40;101861.31;5059696;28;20028;-67
2021/08/26 01:20:55;;;;;;;9.77;3.25;;;;;;;15.85;78.60;101855.03;5073241;28;20024;-69
2021/08/26 01:23:21;;;;;;;10.23;3.42;;;;;;;15.85;78.02;101861.22;5072933;28;20055;-69
2021/08/26 01:25:50;;;;;;;12.75;3.25;;;;;;;15.84;77.91;101858.63;5073050;28;20110;-68
2021/08/26 01:28:16;;;;;;;11.13;2.90;;;;;;;15.88;77.04;101865.53;5055828;28;20041;-70
2021/08/26 01:30:43;;;;;;;10.80;3.10;;;;;;;15.87;77.14;101853.16;5073115;28;20028;-68
2021/08/26 01:33:09;;;;;;;13.27;3.40;;;;;;;15.85;77.31;101855.88;5073176;28;20048;-68
2021/08/26 01:35:34;;;;;;;15.27;3.20;;;;;;;15.83;76.19;101857.78;5072431;28;20117;-68
2021/08/26 01:38:00;;;;;;;12.77;3.50;;;;;;;15.84;76.47;101853.28;5073671;28;20028;-69
2021/08/26 01:40:52;;;;;;;10.98;3.10;;;;;;;15.84;76.28;101853.28;5073111;28;20034;-68
2021/08/26 01:43:21;;;;;;;10.80;3.55;;;;;;;15.83;75.45;101844.44;5069587;28;20112;-69
2021/08/26 01:45:47;;;;;;;16.25;3.67;;;;;;;15.81;74.96;101842.75;5072714;28;20029;-68
2021/08/26 01:48:20;;;;;;;14.55;3.97;;;;;;;15.80;76.28;101841.00;5056131;28;20027;-68
2021/08/26 01:50:49;;;;;;;16.88;3.78;;;;;;;15.81;75.93;101840.06;5072569;28;20028;-68
2021/08/26 01:53:16;;;;;;;15.68;4.20;;;;;;;15.74;75.66;101839.50;5074054;28;20028;-68
2021/08/26 01:55:43;;;;;;;15.15;3.85;;;;;;;15.74;77.20;101831.50;5072401;28;20029;-68
2021/08/26 01:58:15;;;;;;;15.77;3.92;;;;;;;15.71;76.76;101842.34;5072405;28;20349;-68
2021/08/26 02:00:40;;;;;;;16.23;3.80;;;;;;;15.70;76.65;101846.81;5073715;28;20028;-70
2021/08/26 02:03:06;;;;;;;15.13;3.80;;;;;;;15.69;76.56;101834.41;5072831;28;20031;-68
2021/08/26 02:05:31;;;;;;;16.30;3.90;;;;;;;15.70;76.17;101830.81;5072188;28;20050;-67
2021/08/26 02:07:57;;;;;;;14.32;3.97;;;;;;;15.67;75.17;101828.28;5072603;28;20062;-68
2021/08/26 02:10:22;;;;;;;17.73;4.43;;;;;;;15.66;74.92;101831.88;5073505;28;20330;-68
2021/08/26 02:12:48;;;;;;;16.65;3.88;;;;;;;15.68;74.46;101845.19;5072760;28;20107;-68
2021/08/26 02:15:14;;;;;;;20.23;4.65;;;;;;;15.64;73.70;101833.78;5071906;28;20548;-68
2021/08/26 02:17:40;;;;;;;12.70;3.88;;;;;;;15.66;72.59;101828.34;5072375;28;20579;-68
2021/08/26 02:20:09;;;;;;;15.93;3.70;;;;;;;15.63;72.70;101833.88;5072853;28;20111;-68
2021/08/26 02:22:35;;;;;;;15.05;3.70;;;;;;;15.65;71.74;101845.31;5072073;28;20087;-68
2021/08/26 02:25:02;;;;;;;22.27;4.00;;;;;;;15.63;71.58;101831.19;5072278;28;20028;-68
2021/08/26 02:27:27;;;;;;;16.52;3.38;;;;;;;15.63;72.02;101825.84;5071783;28;20158;-68
2021/08/26 02:29:53;;;;;;;16.98;3.97;;;;;;;15.64;71.96;101822.22;5072238;28;20095;-68
2021/08/26 02:32:18;;;;;;;12.75;3.70;;;;;;;15.60;71.75;101829.53;5087603;28;20467;-67
2021/08/26 02:34:44;;;;;;;16.52;4.03;;;;;;;15.61;71.83;101833.06;5092363;28;20032;-67
2021/08/26 02:37:09;;;;;;;20.10;4.20;;;;;;;15.61;71.62;101823.22;5083811;28;20043;-68
2021/08/26 02:39:35;;;;;;;17.92;4.00;;;;;;;15.56;72.52;101825.28;5071646;28;20093;-67
2021/08/26 02:42:01;;;;;;;10.25;3.08;;;;;;;15.53;72.05;101830.78;5073456;28;20028;-69
2021/08/26 02:44:27;;;;;;;14.38;3.22;;;;;;;15.52;71.97;101840.56;5071915;28;20477;-68
2021/08/26 02:46:53;;;;;;;12.40;3.47;;;;;;;15.48;72.02;101828.31;5071710;28;20035;-68
2021/08/26 02:49:18;;;;;;;14.27;3.58;;;;;;;15.50;72.22;101828.25;5072212;28;20025;-68
2021/08/26 02:51:43;;;;;;;12.23;3.15;;;;;;;15.50;72.79;101826.47;5073141;28;20127;-68
2021/08/26 02:54:09;;;;;;;17.23;3.70;;;;;;;15.48;71.74;101836.34;5052175;28;20440;-67
2021/08/26 02:56:34;;;;;;;12.20;3.13;;;;;;;15.50;72.22;101822.91;5052224;28;20017;-67
2021/08/26 02:58:59;;;;;;;11.75;3.20;;;;;;;15.45;71.90;101828.50;5069136;28;20032;-68
2021/08/26 03:01:24;;;;;;;13.90;3.13;;;;;;;15.43;72.30;101827.69;5071997;28;20021;-68
2021/08/26 03:03:50;;;;;;;10.70;3.22;;;;;;;15.43;72.71;101825.03;5073068;28;20460;-68
2021/08/26 03:06:15;;;;;;;18.88;3.35;;;;;;;15.39;72.23;101824.31;5071825;28;20021;-68
2021/08/26 03:08:40;;;;;;;17.98;3.72;;;;;;;15.38;71.85;101817.25;5060838;28;20029;-68
2021/08/26 03:11:10;;;;;;;10.95;3.22;;;;;;;15.38;72.18;101817.25;5058181;28;20020;-67
2021/08/26 03:13:35;;;;;;;13.70;3.30;;;;;;;15.39;71.86;101828.78;5072911;28;20038;-68
2021/08/26 03:16:01;;;;;;;15.73;3.55;;;;;;;15.41;72.32;101829.59;5071708;28;20100;-68
2021/08/26 03:18:26;;;;;;;13.00;3.58;;;;;;;15.39;72.45;101828.78;5071642;28;20415;-68
2021/08/26 03:20:51;;;;;;;14.18;3.40;;;;;;;15.38;72.45;101827.06;5071816;28;20025;-68
2021/08/26 03:23:17;;;;;;;11.02;2.78;;;;;;;15.36;73.00;101821.81;5071492;28;20131;-67
2021/08/26 03:25:42;;;;;;;12.50;3.20;;;;;;;15.37;72.17;101820.88;5073076;28;20067;-68
2021/08/26 03:28:08;;;;;;;14.05;3.28;;;;;;;15.38;72.53;101816.38;5071702;28;20039;-67
2021/08/26 03:30:33;;;;;;;10.13;2.78;;;;;;;15.35;72.05;101816.53;5071509;28;20032;-68
2021/08/26 03:32:58;;;;;;;12.30;2.78;;;;;;;15.33;71.59;101824.63;5073258;28;20373;-67
2021/08/26 03:35:24;;;;;;;7.70;3.03;;;;;;;15.36;71.53;101818.28;5076281;28;20063;-68
2021/08/26 03:37:49;;;;;;;13.90;3.33;;;;;;;15.34;71.68;101802.31;5075113;28;20025;-68
2021/08/26 03:40:14;;;;;;;14.18;3.50;;;;;;;15.35;71.63;101814.72;5074915;28;20589;-68
2021/08/26 03:42:40;;;;;;;9.95;2.95;;;;;;;15.40;71.95;101817.19;5074906;28;20029;-67
2021/08/26 03:45:06;;;;;;;16.13;3.70;;;;;;;15.38;72.05;101806.59;5076371;28;20025;-68
2021/08/26 03:47:32;;;;;;;13.60;3.30;;;;;;;15.37;72.74;101815.53;5095118;28;20016;-68
2021/08/26 03:49:57;;;;;;;8.15;2.90;;;;;;;15.35;73.15;101812.06;5088549;28;20357;-67
2021/08/26 03:52:23;;;;;;;14.38;3.15;;;;;;;15.32;74.08;101814.00;5075233;28;20035;-68
2021/08/26 03:54:48;;;;;;;12.30;3.30;;;;;;;15.31;75.21;101809.63;5074857;28;20111;-67
2021/08/26 03:57:13;;;;;;;13.52;3.42;;;;;;;15.29;75.65;101806.16;5075896;28;20165;-68
2021/08/26 03:59:39;;;;;;;12.80;3.38;;;;;;;15.28;75.35;101802.66;5074857;28;20032;-68
2021/08/26 04:02:04;;;;;;;13.57;3.35;;;;;;;15.29;75.17;101809.69;5074534;28;20489;-67
2021/08/26 04:04:29;;;;;;;12.50;3.17;;;;;;;15.29;74.93;101817.69;5076021;28;20035;-68
2021/08/26 04:06:55;;;;;;;14.35;3.13;;;;;;;15.28;74.94;101804.44;5075145;28;20036;-68
2021/08/26 04:09:20;;;;;;;17.65;3.45;;;;;;;15.31;75.69;101818.50;5074678;28;20416;-68
2021/08/26 04:11:46;;;;;;;16.98;3.42;;;;;;;15.32;76.44;101809.56;5074524;28;20131;-68
2021/08/26 04:14:11;;;;;;;12.15;3.33;;;;;;;15.33;75.65;101805.06;5074624;28;20357;-68
2021/08/26 04:16:36;;;;;;;17.77;3.72;;;;;;;15.33;75.73;101813.06;5075554;28;20106;-68
2021/08/26 04:19:02;;;;;;;15.90;3.42;;;;;;;15.32;75.63;101811.34;5074614;28;20028;-68
2021/08/26 04:21:27;;;;;;;14.23;3.38;;;;;;;15.33;75.28;101811.28;5074010;28;20079;-68
2021/08/26 04:23:53;;;;;;;15.00;3.45;;;;;;;15.34;75.08;101804.13;5074452;28;20058;-68
2021/08/26 04:26:18;;;;;;;11.15;2.97;;;;;;;15.32;74.64;101808.69;5075369;28;20125;-68
2021/08/26 04:28:43;;;;;;;10.52;2.90;;;;;;;15.32;74.69;101809.56;5074332;28;20029;-68
2021/08/26 04:31:09;;;;;;;11.73;2.80;;;;;;;15.31;74.48;101810.50;5074295;28;20062;-68
2021/08/26 04:33:34;;;;;;;13.38;3.10;;;;;;;15.34;74.37;101804.13;5073574;28;20028;-68
2021/08/26 04:35:59;;;;;;;17.10;3.33;;;;;;;15.34;74.28;101805.00;5074068;28;20021;-68
2021/08/26 04:38:24;;;;;;;20.98;3.20;;;;;;;15.32;75.19;101800.66;5075284;28;20107;-67
2021/08/26 04:40:50;;;;;;;16.10;3.13;;;;;;;15.32;75.21;101795.31;5073959;28;20108;-67
2021/08/26 04:43:15;;;;;;;14.85;3.05;;;;;;;15.31;74.19;101805.16;5073266;28;20039;-67
2021/08/26 04:45:40;;;;;;;10.93;2.72;;;;;;;15.33;73.97;101794.41;5073441;28;20373;-68
2021/08/26 04:48:06;;;;;;;9.88;3.00;;;;;;;15.34;71.15;101790.78;5081768;28;20020;-68
2021/08/26 04:50:31;;;;;;;11.52;2.80;;;;;;;15.36;70.60;101792.44;5094024;28;20523;-68
2021/08/26 04:52:57;;;;;;;8.05;2.22;;;;;;;15.39;69.37;101800.28;5084854;28;20028;-68
2021/08/26 04:55:22;;;;;;;12.43;2.47;;;;;;;15.43;69.00;101795.66;5074112;28;20059;-68
2021/08/26 04:57:47;;;;;;;11.90;2.10;;;;;;;15.47;67.57;101791.88;5074431;28;20510;-68
2021/08/26 05:00:13;;;;;;;12.35;2.40;;;;;;;15.48;66.71;101790.09;5073521;28;20028;-69
2021/08/26 05:02:38;;;;;;;8.60;2.08;;;;;;;15.49;67.44;101797.19;5073004;28;20025;-68
2021/08/26 05:05:04;;;;;;;9.75;2.47;;;;;;;15.49;66.45;101798.03;5072894;28;20116;-68
2021/08/26 05:07:29;;;;;;;11.57;2.47;;;;;;;15.50;67.43;101793.53;5073503;28;20028;-68
2021/08/26 05:09:54;;;;;;;7.32;2.00;;;;;;;15.49;67.11;101786.50;5074472;28;20039;-69
2021/08/26 05:12:20;;;;;;;12.13;3.10;;;;;;;15.47;67.85;101791.88;5073135;28;20028;-68
2021/08/26 05:14:45;;;;;;;11.85;3.17;;;;;;;15.48;68.43;101793.63;5072803;28;20040;-67
2021/08/26 05:17:10;;;;;;;11.70;2.45;;;;;;;15.50;68.44;101793.53;5073110;28;20524;-68
2021/08/26 05:19:36;;;;;;;9.00;2.20;;;;;;;15.52;68.25;101791.66;5074445;28;20503;-68
2021/08/26 05:22:03;;;;;;;10.25;2.35;;;;;;;15.54;68.26;101796.00;5073103;28;20434;-67
2021/08/26 05:24:29;;;;;;;14.82;2.67;;;;;;;15.56;68.83;101794.13;5072656;28;20028;-68
2021/08/26 05:26:54;;;;;;;11.88;2.70;;;;;;;15.60;69.00;101797.50;5073056;28;20103;-68
2021/08/26 05:29:19;;;;;;;10.32;2.60;;;;;;;15.63;69.24;101801.81;5072916;28;20487;-68
2021/08/26 05:31:45;;;;;;;12.98;2.40;;;;;;;15.66;69.40;101791.81;5073694;28;20060;-68
2021/08/26 05:34:10;;;;;;;8.02;2.50;;;;;;;15.66;69.40;101798.97;5072340;28;20024;-67
2021/08/26 05:36:36;;;;;;;11.20;2.80;;;;;;;15.70;69.42;101797.88;5072804;28;20366;-68
2021/08/26 05:39:01;;;;;;;10.30;2.42;;;;;;;15.76;68.95;101794.03;5072703;28;20029;-67
2021/08/26 05:41:26;;;;;;;10.38;2.47;;;;;;;15.77;69.02;101795.75;5073603;28;20036;-68
2021/08/26 05:43:51;;;;;;;11.95;3.20;;;;;;;15.77;68.18;101798.41;5072457;28;20032;-68
2021/08/26 05:46:17;;;;;;;9.52;2.38;;;;;;;15.73;68.27;101792.41;5072233;28;20123;-68
2021/08/26 05:48:42;;;;;;;8.73;2.47;;;;;;;15.71;68.88;101787.13;5072382;28;20033;-66
2021/08/26 05:51:07;;;;;;;8.82;2.15;;;;;;;15.75;68.31;101794.97;5073436;28;20046;-68
2021/08/26 05:53:33;;;;;;;10.63;2.35;;;;;;;15.72;68.00;101791.50;5065778;28;20063;-66
2021/08/26 05:55:58;;;;;;;8.98;2.00;;;;;;;15.74;68.32;101786.09;5066143;28;20071;-66
2021/08/26 05:58:24;;;;;;;11.10;2.40;;;;;;;15.80;67.96;101800.94;5055777;28;20017;-65
2021/08/26 06:00:50;;;;;;;6.75;2.00;;;;;;;15.87;68.63;101789.06;5061597;28;20051;-67
2021/08/26 06:03:16;;;;;;;10.88;2.88;;;;;;;15.92;68.88;101789.69;5069969;28;20033;-65
2021/08/26 06:05:42;;;;;;;13.38;2.28;;;;;;;15.99;68.25;101792.88;5073608;28;20460;-67
2021/08/26 06:08:07;;;;;;;11.77;2.47;;;;;;;16.03;68.17;101786.44;5073377;28;20025;-66
2021/08/26 06:10:33;;;;;;;9.77;2.42;;;;;;;16.05;67.47;101790.75;5052172;28;20025;-66
2021/08/26 06:12:58;;;;;;;7.38;2.35;;;;;;;16.08;67.55;101788.88;5062522;28;20028;-66
2021/08/26 06:15:24;;;;;;;9.43;2.20;;;;;;;16.08;67.47;101789.72;5082431;28;20131;-64
2021/08/26 06:17:49;;;;;;;10.85;2.20;;;;;;;16.09;67.06;101787.88;5071316;28;20402;-67
2021/08/26 06:20:16;;;;;;;6.22;2.30;;;;;;;16.05;67.12;101804.09;5064673;28;20082;-65
2021/08/26 06:22:43;;;;;;;8.23;2.03;;;;;;;16.05;67.20;101800.56;5066264;28;20090;-67
2021/08/26 06:25:09;;;;;;;12.73;2.63;;;;;;;16.06;67.96;101807.63;5069140;28;20029;-67
2021/08/26 06:27:35;;;;;;;7.32;2.28;;;;;;;16.03;66.03;101814.00;5062378;28;20124;-65
2021/08/26 06:30:00;;;;;;;6.72;2.10;;;;;;;15.93;67.28;101807.41;5052081;28;20151;-67
2021/08/26 06:32:26;;;;;;;9.85;2.33;;;;;;;15.93;67.26;101810.06;5051942;28;20036;-67
2021/08/26 06:34:52;;;;;;;9.85;1.98;;;;;;;15.91;67.91;101808.44;5066124;28;20075;-65
2021/08/26 06:37:17;;;;;;;13.57;2.38;;;;;;;15.89;68.29;101795.16;5071683;28;20094;-66
2021/08/26 06:39:42;;;;;;;8.88;2.03;;;;;;;15.95;68.74;101794.84;5072027;28;20028;-66
2021/08/26 06:42:08;;;;;;;7.47;2.10;;;;;;;16.05;68.83;101793.41;5071667;28;20025;-66
2021/08/26 06:44:33;;;;;;;7.97;2.42;;;;;;;16.02;68.76;101793.59;5076390;28;20448;-65
2021/08/26 06:46:59;;;;;;;9.77;2.00;;;;;;;16.00;68.62;101797.28;5091983;28;20028;-65
2021/08/26 06:49:24;;;;;;;8.10;2.50;;;;;;;15.93;69.55;101806.56;5091973;28;20107;-66
2021/08/26 06:51:50;;;;;;;10.30;2.20;;;;;;;15.92;70.61;101804.81;5091986;28;20430;-66
2021/08/26 06:54:15;;;;;;;9.18;2.40;;;;;;;15.98;71.16;101813.38;5091921;28;20461;-65
2021/08/26 06:56:41;;;;;;;13.25;2.38;;;;;;;16.03;70.28;101813.13;5075624;28;20062;-66
2021/08/26 06:59:06;;;;;;;8.35;2.30;;;;;;;16.14;71.02;101807.22;5072842;28;20068;-67
2021/08/26 07:01:31;;;;;;;12.95;2.17;;;;;;;16.24;70.11;101807.59;5071452;28;20104;-65
2021/08/26 07:03:57;;;;;;;13.82;2.78;;;;;;;16.33;70.58;101807.97;5071361;28;20117;-66
2021/08/26 07:06:22;;;;;;;10.30;2.20;;;;;;;16.45;68.53;101809.13;5072714;28;20111;-66
2021/08/26 07:08:47;;;;;;;10.40;2.47;;;;;;;16.58;68.40;101808.47;5075120;28;20127;-66
2021/08/26 07:11:13;;;;;;;10.93;2.42;;;;;;;16.54;67.36;101810.44;5075939;28;20028;-65
2021/08/26 07:13:38;;;;;;;12.68;2.67;;;;;;;16.42;67.60;101803.94;5075706;28;20461;-66
2021/08/26 07:16:04;;;;;;;15.90;2.67;;;;;;;16.48;68.79;101808.09;5075930;28;20032;-67
2021/08/26 07:18:29;;;;;;;11.43;2.47;;;;;;;16.49;68.25;101809.81;5075085;28;20476;-65
2021/08/26 07:20:55;;;;;;;10.23;3.25;;;;;;;16.43;68.42;101818.16;5079314;28;20025;-67
2021/08/26 07:23:21;;;;;;;11.57;2.40;;;;;;;16.36;69.34;101823.84;5078030;28;20127;-65
2021/08/26 07:25:46;;;;;;;12.90;2.35;;;;;;;16.17;71.43;101831.13;5056916;28;20381;-66
2021/08/26 07:28:12;;;;;;;9.98;2.45;;;;;;;15.69;74.30;101839.75;5055384;28;20025;-66
2021/08/26 07:30:38;;;;;;;11.40;2.40;;;;;;;15.48;75.89;101840.81;5055616;28;20436;-65
2021/08/26 07:33:03;;;;;;;6.38;2.30;;;;;;;15.43;76.67;101837.53;5054901;28;20099;-64
2021/08/26 07:35:29;;;;;;;6.72;1.70;;;;;;;15.73;76.79;101819.94;5057435;28;20036;-65
2021/08/26 07:37:54;;;;;;;9.77;2.28;;;;;;;16.11;74.42;101810.06;5055461;28;20021;-65
2021/08/26 07:40:19;;;;;;;6.90;1.70;;;;;;;16.49;73.33;101809.81;5055011;28;20098;-66
2021/08/26 07:42:45;;;;;;;6.18;1.85;;;;;;;16.73;71.50;101804.06;5063670;28;20025;-65
2021/08/26 07:45:10;;;;;;;6.40;1.70;;;;;;;16.89;71.41;101802.25;5072380;28;20044;-66
2021/08/26 07:47:36;;;;;;;7.93;1.70;;;;;;;16.96;70.19;101817.06;5071543;28;20021;-67
2021/08/26 07:50:02;;;;;;;9.23;1.70;;;;;;;16.98;70.99;101812.50;5073929;28;20411;-67
2021/08/26 07:52:27;;;;;;;5.85;1.30;;;;;;;16.84;71.44;101810.56;5087744;28;20024;-66
2021/08/26 07:54:52;;;;;;;7.20;1.45;;;;;;;16.98;70.98;101814.28;5081991;28;20131;-66
2021/08/26 07:57:18;;;;;;;8.05;1.90;;;;;;;17.27;70.61;101812.63;5073524;28;20036;-67
2021/08/26 07:59:43;;;;;;;5.75;1.70;;;;;;;17.72;68.19;101801.13;5075096;28;20035;-65
2021/08/26 08:02:09;;;;;;;6.05;1.58;;;;;;;18.16;65.70;101800.28;5075037;28;20067;-67
2021/08/26 08:04:34;;;;;;;5.57;1.48;;;;;;;18.49;63.72;101797.31;5075359;28;20037;-66
2021/08/26 08:07:00;;;;;;;5.15;1.73;;;;;;;18.42;63.89;101793.28;5078270;28;20052;-65
2021/08/26 08:09:25;;;;;;;5.13;1.50;;;;;;;18.40;60.70;101797.03;5075634;28;20464;-66
2021/08/26 08:11:50;;;;;;;5.95;1.70;;;;;;;18.50;60.68;101792.78;5087247;28;20052;-67
2021/08/26 08:14:16;;;;;;;8.93;1.70;;;;;;;18.47;60.48;101798.38;5061310;28;20100;-65
2021/08/26 08:16:41;;;;;;;5.20;1.65;;;;;;;18.37;60.24;101795.38;5070254;28;20032;-68
2021/08/26 08:19:06;;;;;;;7.15;1.60;;;;;;;18.26;61.58;101804.13;5073700;28;20071;-67
2021/08/26 08:21:32;;;;;;;6.43;1.52;;;;;;;18.21;62.79;101790.13;5074557;28;20028;-66
2021/08/26 08:23:58;;;;;;;6.10;1.70;;;;;;;18.15;62.96;101795.88;5059919;28;20040;-66
2021/08/26 08:26:23;;;;;;;8.50;1.80;;;;;;;18.33;62.49;101792.03;5085673;28;20070;-66
2021/08/26 08:28:48;;;;;;;6.22;1.50;;;;;;;18.32;61.85;101801.03;5074535;28;20388;-65
2021/08/26 08:31:14;;;;;;;5.95;1.75;;;;;;;18.11;63.09;101799.72;5073963;28;20407;-64
2021/08/26 08:33:40;;;;;;;5.20;1.58;;;;;;;17.95;64.30;101800.63;5085656;28;20024;-65
2021/08/26 08:36:06;;;;;;;7.25;2.10;;;;;;;17.62;66.21;101799.00;5094553;28;20530;-66
2021/08/26 08:38:32;;;;;;;6.55;2.22;;;;;;;17.54;66.75;101787.88;5089304;28;20036;-67
2021/08/26 08:40:57;;;;;;;10.25;1.88;;;;;;;17.41;67.31;101794.91;5074054;28;20032;-65
2021/08/26 08:43:22;;;;;;;7.75;1.73;;;;;;;17.66;67.09;101794.31;5071629;28;20055;-68
2021/08/26 08:45:48;;;;;;;6.57;1.70;;;;;;;17.81;66.04;101798.78;5058408;28;20040;-66
2021/08/26 08:48:14;;;;;;;8.85;1.95;;;;;;;18.11;64.06;101795.19;5061239;28;20437;-62
2021/08/26 08:50:41;;;;;;;8.25;2.30;;;;;;;18.26;63.24;101797.88;5063320;28;20112;-66
2021/08/26 08:53:15;;;;;;;6.28;1.70;;;;;;;18.46;62.41;101797.50;5069264;28;20701;-66
2021/08/26 08:55:46;;;;;;;8.73;1.92;;;;;;;18.74;62.59;101793.06;5065722;28;20116;-66
2021/08/26 08:58:12;;;;;;;10.05;2.38;;;;;;;18.91;61.03;101794.66;5073037;28;20027;-67
2021/08/26 09:00:38;;;;;;;6.65;2.00;;;;;;;18.96;61.89;101799.75;5065548;28;20116;-66
2021/08/26 09:03:04;;;;;;;11.38;2.50;;;;;;;18.73;63.39;101804.75;5062476;28;20516;-67
2021/08/26 09:05:52;;;;;;;7.40;2.05;;;;;;;18.36;65.73;101806.22;5074671;28;20029;-66
2021/08/26 09:08:18;;;;;;;8.30;2.20;;;;;;;17.93;69.72;101802.56;5077106;28;20104;-68
2021/08/26 09:10:44;;;;;;;11.05;2.45;;;;;;;17.62;71.00;101804.38;5072911;28;20115;-65
2021/08/26 09:13:10;;;;;;;14.13;3.45;;;;;;;17.36;72.42;101804.06;5057116;28;20469;-66
2021/08/26 09:15:45;;;;;;;9.10;2.50;;;;;;;17.47;70.45;101800.75;5053587;28;20035;-66
2021/08/26 09:18:18;;;;;;;12.05;2.45;;;;;;;17.73;68.62;101798.34;5057875;28;20033;-66
2021/08/26 09:21:13;;;;;;;13.20;2.80;;;;;;;18.08;65.70;101797.19;5089736;28;20035;-66
2021/08/26 09:23:54;;;;;;;12.15;2.60;;;;;;;17.95;64.84;101799.78;5010738;28;20077;-67
2021/08/26 09:26:21;;;;;;;11.35;2.58;;;;;;;18.05;63.53;101792.88;5011639;28;20038;-67
2021/08/26 09:28:50;;;;;;;14.45;2.70;;;;;;;18.12;64.66;101804.09;5011720;28;20209;-65
2021/08/26 09:31:26;;;;;;;9.85;2.67;;;;;;;18.55;61.74;101801.41;5010566;28;20056;-65
2021/08/26 09:33:55;;;;;;;13.55;2.97;;;;;;;18.43;62.59;101800.38;5011612;28;20045;-67
2021/08/26 09:36:24;;;;;;;10.70;2.70;;;;;;;18.27;63.60;101807.66;5011279;28;20028;-67
2021/08/26 09:38:55;;;;;;;10.95;2.85;;;;;;;17.95;64.11;101807.81;5008327;28;20041;-66
2021/08/26 09:41:40;;;;;;;;;;;;;;;17.72;65.44;101795.78;5011641;28;20038;-66
2021/08/26 09:44:27;;;;;;;8.88;2.60;;;;;;;17.60;65.25;101790.19;5011151;28;19953;-68
2021/08/26 09:46:54;;;;;;;14.00;2.80;;;;;;;17.77;65.41;101794.53;5004072;28;20401;-66
2021/08/26 09:49:22;;;;;;;13.10;3.00;;;;;;;18.02;64.35;101798.44;5007382;28;20037;-66
2021/08/26 09:52:04;;;;;;;13.98;3.60;;;;;;;18.31;62.24;101790.41;5011582;28;20111;-66
2021/08/26 09:54:36;;;;;;;9.52;3.17;;;;;;;18.42;61.59;101790.59;5029701;28;20519;-67
2021/08/26 09:57:04;;;;;;;12.25;2.70;;;;;;;18.42;61.54;101790.59;5020880;28;20148;-64
2021/08/26 09:59:40;;;;;;;8.90;2.72;;;;;;;18.53;60.85;101789.94;5028048;28;20489;-67
2021/08/26 10:02:06;;;;;;;11.77;2.50;;;;;;;18.58;61.04;101776.22;5071940;28;20035;-67
2021/08/26 10:04:32;;;;;;;9.15;2.80;;;;;;;18.62;60.88;101781.28;5072561;28;20029;-66
2021/08/26 10:06:57;;;;;;;10.60;2.88;;;;;;;18.61;62.00;101790.28;5073424;28;20024;-67
2021/08/26 10:09:23;;;;;;;11.05;3.40;;;;;;;18.58;60.81;101786.94;5072067;28;20081;-67
2021/08/26 10:11:49;;;;;;;12.48;3.30;;;;;;;18.50;61.75;101785.63;5072660;28;20020;-67
2021/08/26 10:14:15;;;;;;;13.75;3.75;;;;;;;18.46;62.21;101791.28;5071906;28;20463;-64
2021/08/26 10:16:41;;;;;;;15.13;3.95;;;;;;;18.63;62.17;101785.72;5072601;28;20032;-66
2021/08/26 10:19:07;;;;;;;15.65;3.80;;;;;;;18.88;60.62;101783.25;5073843;28;20036;-66
2021/08/26 10:21:33;;;;;;;14.95;3.50;;;;;;;18.89;61.44;101782.28;5072458;28;20044;-64
2021/08/26 10:23:59;;;;;;;10.75;3.17;;;;;;;18.94;60.79;101782.88;5072056;28;20035;-67
2021/08/26 10:26:26;;;;;;;12.55;3.20;;;;;;;19.09;60.35;101773.84;5072303;28;20032;-66
2021/08/26 10:28:51;;;;;;;9.30;3.33;;;;;;;19.19;60.04;101783.97;5073170;28;20019;-66
2021/08/26 10:31:29;;;;;;;12.95;3.30;;;;;;;19.60;58.23;101783.00;5071986;28;20025;-65
2021/08/26 10:34:20;;;;;;;12.77;3.47;;;;;;;20.01;55.99;101778.44;5072315;28;20021;-66
2021/08/26 10:36:58;;;;;;;11.55;3.50;;;;;;;20.04;56.45;101783.59;5072284;28;20357;-67
2021/08/26 10:39:34;;;;;;;12.73;3.90;;;;;;;19.94;58.72;101784.25;5072946;28;20086;-69
2021/08/26 10:42:17;;;;;;;15.30;4.13;;;;;;;20.16;57.56;101792.66;5074312;28;20113;-67
2021/08/26 10:44:57;;;;;;;14.18;4.22;;;;;;;19.77;58.67;101796.13;5076113;28;20378;-66
2021/08/26 10:47:23;;;;;;;12.95;3.92;;;;;;;19.97;59.06;101789.44;5075838;28;20028;-67
2021/08/26 10:50:15;;;;;;;14.70;4.00;;;;;;;19.96;59.30;101797.56;5077515;28;20021;-65
2021/08/26 10:52:56;;;;;;;18.10;4.30;;;;;;;19.94;59.11;101786.09;5076424;28;20061;-66
2021/08/26 10:55:44;;;;;;;15.27;3.70;;;;;;;19.79;58.91;101787.97;5075881;28;20036;-67
2021/08/26 10:58:22;;;;;;;14.02;3.70;;;;;;;19.46;59.25;101789.28;5075764;28;20025;-66
2021/08/26 11:00:59;;;;;;;17.33;4.53;;;;;;;19.25;60.44;101784.41;5076817;28;20353;-65
2021/08/26 11:03:45;;;;;;;16.50;3.90;;;;;;;19.22;60.31;101787.31;5076215;28;20036;-65
2021/08/26 11:06:16;;;;;;;14.43;3.60;;;;;;;18.93;60.57;101803.50;5076161;28;20029;-65
2021/08/26 11:08:44;;;;;;;14.35;4.05;;;;;;;19.12;60.48;101805.00;5076002;28;20028;-66
2021/08/26 11:11:25;;;;;;;14.00;4.07;;;;;;;19.24;59.66;101795.25;5077212;28;20025;-66
2021/08/26 11:13:52;;;;;;;14.57;3.70;;;;;;;19.14;60.45;101798.56;5075352;28;20031;-65
2021/08/26 11:16:23;;;;;;;19.38;4.22;;;;;;;18.94;60.79;101798.97;5075588;28;20075;-65
2021/08/26 11:18:53;;;;;;;20.85;4.72;;;;;;;19.00;61.90;101801.25;5075926;28;20476;-65
2021/08/26 11:21:40;;;;;;;15.60;3.58;;;;;;;19.11;60.99;101796.06;5076938;28;20021;-65
2021/08/26 11:24:06;;;;;;;13.32;3.95;;;;;;;19.32;60.71;101788.41;5075166;28;20052;-65
2021/08/26 11:26:45;;;;;;;11.20;3.42;;;;;;;18.81;62.32;101797.06;5075738;28;20029;-66